createdAt,value
2022-09-28T00:01:17.725Z,98739.84
2022-09-28T00:03:46.155Z,98739.81
2022-09-28T00:06:16.278Z,98745.91
2022-09-28T00:08:44.776Z,98741.94
2022-09-28T00:11:15.683Z,98741.38
2022-09-28T00:13:45.018Z,98741.38
2022-09-28T00:16:15.127Z,98743.50
2022-09-28T00:18:43.643Z,98742.69
2022-09-28T00:21:14.164Z,98744.28
2022-09-28T00:23:56.599Z,98743.50
2022-09-28T00:26:27.271Z,98743.00
2022-09-28T00:28:56.477Z,98737.91
2022-09-28T00:31:25.237Z,98747.72
2022-09-28T00:33:55.855Z,98759.91
2022-09-28T00:36:24.722Z,98765.47
2022-09-28T00:38:52.738Z,98782.69
2022-09-28T00:41:20.830Z,98787.97
2022-09-28T00:43:50.562Z,98780.00
2022-09-28T00:46:21.730Z,98771.50
2022-09-28T00:48:56.390Z,98771.00
2022-09-28T00:51:26.688Z,98777.09
2022-09-28T00:53:56.764Z,98781.06
2022-09-28T00:56:29.651Z,98775.25
2022-09-28T00:59:00.530Z,98775.56
2022-09-28T01:01:29.602Z,98776.34
2022-09-28T01:03:59.916Z,98772.63
2022-09-28T01:06:33.632Z,98770.53
2022-09-28T01:09:05.484Z,98780.34
2022-09-28T01:11:35.256Z,98776.38
2022-09-28T01:14:08.054Z,98777.44
2022-09-28T01:16:43.204Z,98782.75
2022-09-28T01:19:39.075Z,98774.53
2022-09-28T01:22:26.445Z,98777.97
2022-09-28T01:25:00.555Z,98784.59
2022-09-28T01:27:34.665Z,98786.72
2022-09-28T01:30:07.998Z,98785.66
2022-09-28T01:32:43.525Z,98791.22
2022-09-28T01:35:16.289Z,98785.13
2022-09-28T01:37:52.456Z,98788.59
2022-09-28T01:40:23.329Z,98786.72
2022-09-28T01:42:59.958Z,98775.31
2022-09-28T01:45:31.570Z,98788.06
2022-09-28T01:48:03.886Z,98780.34
2022-09-28T01:50:37.541Z,98781.66
2022-09-28T01:53:13.004Z,98766.81
2022-09-28T01:55:45.417Z,98752.97
2022-09-28T01:58:20.388Z,98743.44
2022-09-28T02:00:52.996Z,98740.78
2022-09-28T02:03:25.937Z,98730.44
2022-09-28T02:05:58.948Z,98725.66
2022-09-28T02:08:32.781Z,98729.66
2022-09-28T02:11:06.294Z,98743.16
2022-09-28T02:13:38.903Z,98734.66
2022-09-28T02:16:14.988Z,98750.56
2022-09-28T02:18:43.363Z,98756.38
2022-09-28T02:21:16.816Z,98755.88
2022-09-28T02:23:53.901Z,98768.06
2022-09-28T02:26:26.197Z,98767.81
2022-09-28T02:28:55.663Z,98770.47
2022-09-28T02:31:23.854Z,98775.75
2022-09-28T02:33:54.466Z,98778.97
2022-09-28T02:36:23.751Z,98792.25
2022-09-28T02:38:52.563Z,98787.72
2022-09-28T02:41:32.496Z,98787.47
2022-09-28T02:44:14.567Z,98783.22
2022-09-28T02:46:51.629Z,98780.03
2022-09-28T02:49:29.585Z,98774.16
2022-09-28T02:52:14.914Z,98775.69
2022-09-28T02:55:01.297Z,98766.41
2022-09-28T02:57:42.275Z,98769.84
2022-09-28T03:00:16.568Z,98771.41
2022-09-28T03:02:56.688Z,98769.81
2022-09-28T03:05:32.929Z,98767.66
2022-09-28T03:08:03.489Z,98759.69
2022-09-28T03:10:39.013Z,98769.50
2022-09-28T03:13:09.049Z,98769.78
2022-09-28T03:15:38.556Z,98766.06
2022-09-28T03:18:06.282Z,98762.34
2022-09-28T03:20:34.948Z,98769.25
2022-09-28T03:25:52.713Z,98770.31
2022-09-28T03:28:21.601Z,98770.56
2022-09-28T03:33:19.777Z,98767.13
2022-09-28T03:35:48.208Z,98775.06
2022-09-28T03:38:16.154Z,98772.41
2022-09-28T03:40:44.510Z,98775.88
2022-09-28T03:43:12.751Z,98767.66
2022-09-28T03:45:40.468Z,98765.00
2022-09-28T03:48:09.932Z,98769.25
2022-09-28T03:50:37.623Z,98771.88
2022-09-28T03:53:05.937Z,98767.41
2022-09-28T03:55:34.023Z,98765.56
2022-09-28T03:58:02.083Z,98770.06
2022-09-28T04:00:29.896Z,98763.94
2022-09-28T04:02:58.074Z,98754.41
2022-09-28T04:05:27.078Z,98760.75
2022-09-28T04:07:58.193Z,98752.25
2022-09-28T04:10:26.590Z,98738.44
2022-09-28T04:12:55.659Z,98738.44
2022-09-28T04:15:24.277Z,98751.66
2022-09-28T04:17:52.706Z,98745.25
2022-09-28T04:20:20.457Z,98750.28
2022-09-28T04:22:49.938Z,98751.03
2022-09-28T04:25:18.241Z,98760.00
2022-09-28T04:28:03.863Z,98762.88
2022-09-28T04:30:32.310Z,98753.63
2022-09-28T04:32:59.978Z,98764.69
2022-09-28T04:35:28.134Z,98770.53
2022-09-28T04:37:57.753Z,98766.25
2022-09-28T04:40:25.461Z,98765.97
2022-09-28T04:42:56.694Z,98772.31
2022-09-28T04:45:26.470Z,98773.09
2022-09-28T04:47:54.592Z,98774.63
2022-09-28T04:50:22.550Z,98776.47
2022-09-28T04:52:50.685Z,98779.38
2022-09-28T04:55:20.610Z,98783.59
2022-09-28T04:57:48.715Z,98780.41
2022-09-28T05:00:17.656Z,98781.47
2022-09-28T05:02:45.676Z,98774.31
2022-09-28T05:05:13.823Z,98779.88
2022-09-28T05:07:42.685Z,98775.38
2022-09-28T05:10:10.517Z,98780.41
2022-09-28T05:12:39.957Z,98771.41
2022-09-28T05:15:08.298Z,98772.72
2022-09-28T05:17:36.004Z,98776.19
2022-09-28T05:20:04.406Z,98773.53
2022-09-28T05:22:32.034Z,98778.81
2022-09-28T05:25:00.330Z,98783.06
2022-09-28T05:27:28.429Z,98784.66
2022-09-28T05:29:57.429Z,98782.00
2022-09-28T05:32:25.172Z,98790.22
2022-09-28T05:34:53.238Z,98787.56
2022-09-28T05:37:20.869Z,98780.91
2022-09-28T05:39:48.509Z,98783.31
2022-09-28T05:42:16.615Z,98787.25
2022-09-28T05:44:44.454Z,98783.81
2022-09-28T05:47:13.539Z,98784.63
2022-09-28T05:49:41.605Z,98783.03
2022-09-28T05:52:09.218Z,98784.06
2022-09-28T05:54:36.861Z,98784.34
2022-09-28T05:57:06.842Z,98789.63
2022-09-28T05:59:36.116Z,98785.13
2022-09-28T06:02:04.900Z,98776.03
2022-09-28T06:04:34.527Z,98788.00
2022-09-28T06:07:02.171Z,98789.31
2022-09-28T06:09:29.953Z,98797.25
2022-09-28T06:12:00.192Z,98794.63
2022-09-28T06:14:27.925Z,98791.97
2022-09-28T06:16:55.624Z,98795.41
2022-09-28T06:19:23.880Z,98807.91
2022-09-28T06:21:53.179Z,98802.09
2022-09-28T06:24:20.783Z,98809.50
2022-09-28T06:26:48.478Z,98811.88
2022-09-28T06:29:19.746Z,98815.09
2022-09-28T06:31:48.213Z,98817.19
2022-09-28T06:34:15.985Z,98815.91
2022-09-28T06:36:44.026Z,98817.50
2022-09-28T06:39:13.046Z,98815.38
2022-09-28T06:41:40.974Z,98814.09
2022-09-28T06:44:08.679Z,98814.41
2022-09-28T06:46:38.127Z,98813.41
2022-09-28T06:49:06.245Z,98811.59
2022-09-28T06:51:33.873Z,98815.88
2022-09-28T06:54:01.868Z,98819.38
2022-09-28T06:56:33.030Z,98819.41
2022-09-28T06:59:00.943Z,98817.06
2022-09-28T07:01:28.894Z,98824.78
2022-09-28T07:03:56.793Z,98829.69
2022-09-28T07:06:26.802Z,98838.19
2022-09-28T07:09:03.698Z,98843.84
2022-09-28T07:11:41.646Z,98845.78
2022-09-28T07:14:14.700Z,98844.25
2022-09-28T07:17:10.207Z,98847.22
2022-09-28T07:19:36.657Z,98854.97
2022-09-28T07:22:05.670Z,98853.13
2022-09-28T07:24:33.470Z,98851.31
2022-09-28T07:27:05.310Z,98846.03
2022-09-28T07:29:32.978Z,98849.50
2022-09-28T07:32:00.647Z,98853.53
2022-09-28T07:34:28.580Z,98857.00
2022-09-28T07:36:59.604Z,98866.59
2022-09-28T07:39:27.286Z,98867.97
2022-09-28T07:41:56.677Z,98864.78
2022-09-28T07:44:29.689Z,98869.63
2022-09-28T07:46:57.762Z,98868.56
2022-09-28T07:49:25.404Z,98871.28
2022-09-28T07:51:53.773Z,98879.81
2022-09-28T07:54:21.841Z,98884.88
2022-09-28T07:56:49.812Z,98886.25
2022-09-28T07:59:19.160Z,98882.53
2022-09-28T08:01:49.572Z,98883.34
2022-09-28T08:04:17.563Z,98882.00
2022-09-28T08:06:46.112Z,98883.38
2022-09-28T08:09:14.294Z,98881.53
2022-09-28T08:11:44.365Z,98890.56
2022-09-28T08:14:12.316Z,98891.66
2022-09-28T08:16:40.408Z,98889.50
2022-09-28T08:19:10.460Z,98887.38
2022-09-28T08:21:46.324Z,98892.47
2022-09-28T08:24:16.669Z,98888.47
2022-09-28T08:26:45.178Z,98892.19
2022-09-28T08:29:16.401Z,98885.00
2022-09-28T08:31:44.598Z,98890.06
2022-09-28T08:34:14.096Z,98896.72
2022-09-28T08:36:42.425Z,98902.06
2022-09-28T08:39:10.569Z,98901.25
2022-09-28T08:41:50.710Z,98905.75
2022-09-28T08:44:24.253Z,98906.28
2022-09-28T08:46:57.667Z,98906.00
2022-09-28T08:49:31.457Z,98904.13
2022-09-28T08:52:02.586Z,98908.88
2022-09-28T08:54:39.085Z,98911.78
2022-09-28T08:57:12.639Z,98913.31
2022-09-28T08:59:49.711Z,98915.13
2022-09-28T09:05:19.390Z,98921.47
2022-09-28T09:08:02.667Z,98913.19
2022-09-28T09:11:01.633Z,98920.31
2022-09-28T09:13:54.822Z,98921.09
2022-09-28T09:16:36.463Z,98929.31
2022-09-28T09:19:16.921Z,98923.72
2022-09-28T09:21:53.031Z,98925.28
2022-09-28T09:24:27.431Z,98920.75
2022-09-28T09:27:19.769Z,98920.72
2022-09-28T09:30:03.246Z,98929.50
2022-09-28T09:32:55.447Z,98919.91
2022-09-28T09:36:02.962Z,98923.09
2022-09-28T09:38:46.811Z,98925.25
2022-09-28T09:41:24.855Z,98920.44
2022-09-28T09:44:16.349Z,98917.72
2022-09-28T09:46:49.547Z,98919.00
2022-09-28T09:49:22.622Z,98915.50
2022-09-28T09:51:57.843Z,98921.56
2022-09-28T09:54:34.977Z,98925.78
2022-09-28T09:57:08.490Z,98908.44
2022-09-28T09:59:41.456Z,98919.59
2022-09-28T10:02:21.636Z,98916.94
2022-09-28T10:04:55.807Z,98918.56
2022-09-28T10:07:26.553Z,98918.63
2022-09-28T10:10:00.011Z,98921.28
2022-09-28T10:12:28.214Z,98917.56
2022-09-28T10:14:56.577Z,98918.94
2022-09-28T10:17:27.789Z,98916.78
2022-09-28T10:19:57.101Z,98913.03
2022-09-28T10:22:28.899Z,98913.03
2022-09-28T10:24:58.790Z,98915.44
2022-09-28T10:27:31.304Z,98914.41
2022-09-28T10:30:03.164Z,98910.97
2022-09-28T10:32:39.445Z,98919.31
2022-09-28T10:35:21.756Z,98911.84
2022-09-28T10:37:54.718Z,98919.31
2022-09-28T10:40:34.632Z,98912.97
2022-09-28T10:43:08.947Z,98920.44
2022-09-28T10:45:38.372Z,98914.31
2022-09-28T10:48:16.495Z,98918.38
2022-09-28T10:50:44.553Z,98915.72
2022-09-28T10:53:19.745Z,98910.09
2022-09-28T10:56:00.625Z,98915.91
2022-09-28T10:58:33.349Z,98906.53
2022-09-28T11:01:04.551Z,98908.34
2022-09-28T11:03:32.770Z,98904.25
2022-09-28T11:06:03.481Z,98906.31
2022-09-28T11:08:37.253Z,98909.94
2022-09-28T11:11:10.632Z,98904.75
2022-09-28T11:13:48.220Z,98916.16
2022-09-28T11:16:37.702Z,98924.09
2022-09-28T11:19:07.489Z,98910.47
2022-09-28T11:21:43.983Z,98914.16
2022-09-28T11:24:21.525Z,98916.03
2022-09-28T11:26:53.654Z,98912.03
2022-09-28T11:29:26.715Z,98916.88
2022-09-28T11:32:00.583Z,98915.06
2022-09-28T11:34:57.523Z,98908.97
2022-09-28T11:37:51.786Z,98909.28
2022-09-28T11:40:30.545Z,98905.59
2022-09-28T11:43:13.334Z,98904.28
2022-09-28T11:45:52.459Z,98901.09
2022-09-28T11:48:26.169Z,98899.25
2022-09-28T11:50:59.112Z,98900.34
2022-09-28T11:53:35.116Z,98896.28
2022-09-28T11:56:13.333Z,98899.22
2022-09-28T11:58:46.289Z,98890.88
2022-09-28T12:01:25.143Z,98888.94
2022-09-28T12:03:57.292Z,98897.94
2022-09-28T12:06:32.358Z,98896.03
2022-09-28T12:09:10.135Z,98901.03
2022-09-28T12:11:43.327Z,98901.25
2022-09-28T12:14:21.583Z,98890.81
2022-09-28T12:17:10.753Z,98891.84
2022-09-28T12:19:45.593Z,98888.06
2022-09-28T12:22:19.247Z,98883.75
2022-09-28T12:24:50.623Z,98891.19
2022-09-28T12:27:25.910Z,98880.44
2022-09-28T12:30:01.059Z,98885.53
2022-09-28T12:32:35.864Z,98887.59
2022-09-28T12:35:04.495Z,98883.88
2022-09-28T12:37:45.179Z,98888.13
2022-09-28T12:40:38.268Z,98902.28
2022-09-28T12:43:34.070Z,98899.44
2022-09-28T12:46:46.209Z,98901.38
2022-09-28T12:50:27.299Z,98898.03
2022-09-28T12:52:29.531Z,98890.41
2022-09-28T12:55:39.977Z,98898.50
2022-09-28T12:58:23.378Z,98898.06
2022-09-28T13:01:02.353Z,98893.31
2022-09-28T13:03:54.033Z,98898.16
2022-09-28T13:06:34.161Z,98890.19
2022-09-28T13:09:22.334Z,98895.03
2022-09-28T13:12:08.534Z,98891.84
2022-09-28T13:15:14.124Z,98880.06
2022-09-28T13:17:50.103Z,98876.84
2022-09-28T13:20:40.784Z,98884.31
2022-09-28T13:23:21.118Z,98877.09
2022-09-28T13:25:59.076Z,98876.28
2022-09-28T13:28:30.049Z,98877.28
2022-09-28T13:31:00.274Z,98877.25
2022-09-28T13:33:37.532Z,98876.69
2022-09-28T13:36:38.756Z,98882.28
2022-09-28T13:39:39.978Z,98872.88
2022-09-28T13:42:11.357Z,98879.81
2022-09-28T13:45:11.978Z,98875.56
2022-09-28T13:47:57.159Z,98875.56
2022-09-28T13:50:34.471Z,98873.97
2022-09-28T13:53:17.171Z,98870.22
2022-09-28T13:55:57.519Z,98879.31
2022-09-28T13:58:29.856Z,98876.63
2022-09-28T14:01:04.725Z,98870.22
2022-09-28T14:03:46.429Z,98871.25
2022-09-28T14:06:27.415Z,98880.03
2022-09-28T14:09:24.641Z,98875.50
2022-09-28T14:11:58.249Z,98882.22
2022-09-28T14:14:49.719Z,98880.09
2022-09-28T14:17:54.127Z,98888.16
2022-09-28T14:20:26.778Z,98884.19
2022-09-28T14:23:22.622Z,98891.16
2022-09-28T14:26:07.770Z,98886.38
2022-09-28T14:28:49.568Z,98898.16
2022-09-28T14:31:26.522Z,98892.31
2022-09-28T14:34:01.085Z,98895.53
2022-09-28T14:36:56.758Z,98894.75
2022-09-28T14:39:47.969Z,98903.03
2022-09-28T14:42:21.834Z,98900.13
2022-09-28T14:45:21.841Z,98903.34
2022-09-28T14:48:20.797Z,98913.53
2022-09-28T14:50:50.009Z,98909.53
2022-09-28T14:53:26.380Z,98901.50
2022-09-28T14:55:58.001Z,98909.56
2022-09-28T14:58:30.350Z,98906.38
2022-09-28T15:01:04.236Z,98903.72
2022-09-28T15:03:36.100Z,98896.22
2022-09-28T15:06:04.087Z,98898.34
2022-09-28T15:08:40.251Z,98892.16
2022-09-28T15:11:14.879Z,98889.44
2022-09-28T15:13:45.075Z,98893.94
2022-09-28T15:16:15.086Z,98897.66
2022-09-28T15:19:05.828Z,98900.84
2022-09-28T15:21:38.358Z,98880.28
2022-09-28T15:24:28.559Z,98889.00
2022-09-28T15:26:57.212Z,98890.03
2022-09-28T15:29:31.654Z,98898.78
2022-09-28T15:32:00.121Z,98896.66
2022-09-28T15:34:47.906Z,98898.75
2022-09-28T15:37:19.002Z,98901.16
2022-09-28T15:39:48.553Z,98901.34
2022-09-28T15:42:18.526Z,98904.03
2022-09-28T15:45:06.784Z,98901.09
2022-09-28T15:47:35.304Z,98901.09
2022-09-28T15:50:05.594Z,98901.66
2022-09-28T15:52:38.838Z,98902.75
2022-09-28T15:55:20.022Z,98906.75
2022-09-28T15:57:48.866Z,98902.78
2022-09-28T16:00:29.604Z,98908.38
2022-09-28T16:03:04.000Z,98904.97
2022-09-28T16:05:36.464Z,98903.16
2022-09-28T16:08:05.975Z,98906.41
2022-09-28T16:10:35.995Z,98893.91
2022-09-28T16:13:17.468Z,98908.84
2022-09-28T16:15:47.164Z,98906.72
2022-09-28T16:18:24.008Z,98904.63
2022-09-28T16:20:53.981Z,98903.59
2022-09-28T16:23:27.011Z,98905.75
2022-09-28T16:25:59.191Z,98910.56
2022-09-28T16:28:49.459Z,98904.97
2022-09-28T16:31:28.469Z,98918.91
2022-09-28T16:33:59.539Z,98918.94
2022-09-28T16:36:29.898Z,98921.06
2022-09-28T16:38:57.788Z,98918.69
2022-09-28T16:41:29.776Z,98915.50
2022-09-28T16:44:01.229Z,98918.72
2022-09-28T16:46:36.383Z,98927.81
2022-09-28T16:49:06.817Z,98925.69
2022-09-28T16:51:34.943Z,98926.78
2022-09-28T16:54:32.757Z,98928.34
2022-09-28T16:57:01.089Z,98928.13
2022-09-28T16:59:29.601Z,98932.66
2022-09-28T17:01:59.667Z,98933.72
2022-09-28T17:04:28.149Z,98936.69
2022-09-28T17:06:58.395Z,98939.63
2022-09-28T17:09:26.715Z,98941.50
2022-09-28T17:11:57.587Z,98946.59
2022-09-28T17:14:25.616Z,98947.38
2022-09-28T17:17:08.044Z,98948.72
2022-09-28T17:19:44.593Z,98944.75
2022-09-28T17:22:14.613Z,98945.56
2022-09-28T17:24:42.836Z,98952.28
2022-09-28T17:27:17.378Z,98953.59
2022-09-28T17:29:45.870Z,98945.34
2022-09-28T17:32:19.910Z,98953.91
2022-09-28T17:35:00.781Z,98947.53
2022-09-28T17:37:38.322Z,98951.03
2022-09-28T17:40:18.441Z,98960.09
2022-09-28T17:42:48.192Z,98964.38
2022-09-28T17:45:17.195Z,98965.69
2022-09-28T17:47:46.225Z,98967.06
2022-09-28T17:50:23.147Z,98973.47
2022-09-28T17:52:54.957Z,98966.00
2022-09-28T17:55:29.147Z,98968.16
2022-09-28T17:57:58.108Z,98967.06
2022-09-28T18:00:27.979Z,98967.59
2022-09-28T18:02:57.099Z,98969.75
2022-09-28T18:05:27.821Z,98974.53
2022-09-28T18:07:58.424Z,98962.84
2022-09-28T18:10:27.628Z,98968.47
2022-09-28T18:12:55.746Z,98970.88
2022-09-28T18:15:24.199Z,98976.75
2022-09-28T18:17:52.380Z,98967.69
2022-09-28T18:20:21.248Z,98974.63
2022-09-28T18:22:50.825Z,98969.84
2022-09-28T18:25:19.016Z,98979.72
2022-09-28T18:27:47.571Z,98982.13
2022-09-28T18:30:15.929Z,98984.78
2022-09-28T18:32:44.492Z,98981.34
2022-09-28T18:35:12.643Z,98981.06
2022-09-28T18:37:41.460Z,98989.88
2022-09-28T18:40:12.866Z,98991.22
2022-09-28T18:42:41.292Z,98996.78
2022-09-28T18:45:12.368Z,98999.19
2022-09-28T18:47:41.230Z,98999.22
2022-09-28T18:50:11.701Z,98996.53
2022-09-28T18:52:41.165Z,98999.72
2022-09-28T18:55:11.858Z,98998.66
2022-09-28T18:57:41.853Z,99002.38
2022-09-28T19:00:12.570Z,99002.91
2022-09-28T19:02:40.717Z,98990.63
2022-09-28T19:05:09.694Z,99001.00
2022-09-28T19:07:37.606Z,99001.53
2022-09-28T19:10:06.859Z,99003.13
2022-09-28T19:12:36.117Z,98996.72
2022-09-28T19:15:04.076Z,98994.84
2022-09-28T19:17:34.492Z,99006.28
2022-09-28T19:20:03.099Z,98998.06
2022-09-28T19:22:31.904Z,98996.97
2022-09-28T19:25:00.365Z,99008.13
2022-09-28T19:27:28.696Z,99005.44
2022-09-28T19:29:58.915Z,99006.00
2022-09-28T19:32:26.980Z,98999.59
2022-09-28T19:34:55.686Z,99007.56
2022-09-28T19:37:23.914Z,99005.41
2022-09-28T19:39:52.584Z,99007.53
2022-09-28T19:42:20.630Z,99009.09
2022-09-28T19:44:48.688Z,99008.81
2022-09-28T19:47:22.315Z,99016.28
2022-09-28T19:49:50.439Z,99017.84
2022-09-28T19:52:18.592Z,99018.63
2022-09-28T19:54:55.886Z,99024.47
2022-09-28T19:57:26.094Z,99018.84
2022-09-28T19:59:57.868Z,99019.63
2022-09-28T20:02:31.144Z,99018.28
2022-09-28T20:04:59.661Z,99023.31
2022-09-28T20:07:28.239Z,99011.63
2022-09-28T20:09:56.505Z,99024.59
2022-09-28T20:12:24.834Z,99012.88
2022-09-28T20:14:53.292Z,99023.25
2022-09-28T20:17:21.902Z,99020.03
2022-09-28T20:19:52.492Z,99019.50
2022-09-28T20:22:21.828Z,99019.16
2022-09-28T20:24:50.267Z,99024.19
2022-09-28T20:27:20.352Z,99022.31
2022-09-28T20:29:50.714Z,99016.44
2022-09-28T20:32:19.270Z,99020.44
2022-09-28T20:34:47.719Z,99019.34
2022-09-28T20:37:19.649Z,99012.44
2022-09-28T20:39:48.302Z,99016.66
2022-09-28T20:42:16.796Z,99020.06
2022-09-28T20:44:45.768Z,99021.34
2022-09-28T20:47:13.916Z,99023.47
2022-09-28T20:49:42.139Z,99021.31
2022-09-28T20:52:12.311Z,99025.31
2022-09-28T20:54:42.203Z,99020.47
2022-09-28T20:57:18.731Z,99021.25
2022-09-28T20:59:50.994Z,99026.00
2022-09-28T21:02:23.522Z,99023.31
2022-09-28T21:04:51.764Z,99022.53
2022-09-28T21:07:20.251Z,99039.75
2022-09-28T21:09:51.113Z,99031.25
2022-09-28T21:12:19.215Z,99035.44
2022-09-28T21:14:47.938Z,99035.94
2022-09-28T21:17:16.029Z,99031.16
2022-09-28T21:19:44.187Z,99024.47
2022-09-28T21:22:12.727Z,99030.03
2022-09-28T21:24:40.891Z,99025.22
2022-09-28T21:27:10.663Z,99028.94
2022-09-28T21:29:38.660Z,99035.78
2022-09-28T21:32:06.694Z,99032.06
2022-09-28T21:34:36.505Z,99030.97
2022-09-28T21:37:04.511Z,99033.03
2022-09-28T21:39:33.203Z,99028.25
2022-09-28T21:42:01.420Z,99026.91
2022-09-28T21:44:31.254Z,99027.94
2022-09-28T21:46:59.995Z,99029.50
2022-09-28T21:49:28.366Z,99031.59
2022-09-28T21:51:57.246Z,99038.19
2022-09-28T21:54:25.428Z,99032.34
2022-09-28T21:56:53.467Z,99023.25
2022-09-28T21:59:21.893Z,99040.25
2022-09-28T22:01:51.948Z,99045.56
2022-09-28T22:04:20.731Z,99043.66
2022-09-28T22:06:49.006Z,99041.25
2022-09-28T22:09:17.108Z,99052.34
2022-09-28T22:11:45.644Z,99046.47
2022-09-28T22:14:13.702Z,99053.06
2022-09-28T22:16:42.393Z,99048.00
2022-09-28T22:19:12.007Z,99057.00
2022-09-28T22:21:40.236Z,99055.91
2022-09-28T22:24:09.328Z,99054.31
2022-09-28T22:26:39.526Z,99057.19
2022-09-28T22:29:10.024Z,99047.09
2022-09-28T22:31:40.236Z,99047.88
2022-09-28T22:34:10.125Z,99048.38
2022-09-28T22:36:39.627Z,99051.28
2022-09-28T22:39:08.370Z,99050.69
2022-09-28T22:41:36.941Z,99059.97
2022-09-28T22:44:05.246Z,99056.75
2022-09-28T22:46:33.471Z,99058.59
2022-09-28T22:49:02.403Z,99058.84
2022-09-28T22:51:31.480Z,99054.06
2022-09-28T22:54:01.826Z,99060.38
2022-09-28T22:56:30.330Z,99061.69
2022-09-28T22:58:58.930Z,99067.22
2022-09-28T23:01:29.153Z,99052.63
2022-09-28T23:03:58.417Z,99062.66
2022-09-28T23:06:29.679Z,99063.69
2022-09-28T23:08:58.202Z,99059.69
2022-09-28T23:11:28.033Z,99063.41
2022-09-28T23:13:58.700Z,99063.88
2022-09-28T23:16:27.656Z,99056.19
2022-09-28T23:18:56.934Z,99055.59
2022-09-28T23:21:26.647Z,99055.06
2022-09-28T23:23:57.121Z,99061.41
2022-09-28T23:26:30.174Z,99052.66
2022-09-28T23:28:59.109Z,99060.03
2022-09-28T23:31:29.046Z,99055.25
2022-09-28T23:34:01.493Z,99060.53
2022-09-28T23:36:29.932Z,99059.97
2022-09-28T23:38:59.054Z,99054.13
2022-09-28T23:41:28.957Z,99059.41
2022-09-28T23:43:57.087Z,99057.50
2022-09-28T23:46:26.026Z,99049.56
2022-09-28T23:48:54.093Z,99051.66
2022-09-28T23:51:22.235Z,99045.78
2022-09-28T23:53:50.767Z,99049.72
2022-09-28T23:56:18.919Z,99043.84
2022-09-28T23:58:49.147Z,99038.56
